sensor_id;sensor_type;location;lat;lon;timestamp;P1;durP1;ratioP1;P2;durP2;ratioP2
11046;SDS011;5576;50.008;10.596;2022-09-09T00:03:53;2.70;;;0.90;;
11046;SDS011;5576;50.008;10.596;2022-09-09T00:06:27;1.75;;;0.90;;
11046;SDS011;5576;50.008;10.596;2022-09-09T00:09:02;1.52;;;0.70;;
11046;SDS011;5576;50.008;10.596;2022-09-09T00:11:48;2.88;;;0.80;;
11046;SDS011;5576;50.008;10.596;2022-09-09T00:14:40;1.50;;;0.82;;
11046;SDS011;5576;50.008;10.596;2022-09-09T00:17:35;1.33;;;0.80;;
11046;SDS011;5576;50.008;10.596;2022-09-09T00:20:12;0.82;;;0.70;;
11046;SDS011;5576;50.008;10.596;2022-09-09T00:22:48;0.80;;;0.70;;
11046;SDS011;5576;50.008;10.596;2022-09-09T00:25:20;1.73;;;0.70;;
11046;SDS011;5576;50.008;10.596;2022-09-09T00:27:55;1.37;;;0.77;;
11046;SDS011;5576;50.008;10.596;2022-09-09T00:30:23;1.17;;;0.73;;
11046;SDS011;5576;50.008;10.596;2022-09-09T00:32:53;1.63;;;0.90;;
11046;SDS011;5576;50.008;10.596;2022-09-09T00:35:25;1.38;;;0.77;;
11046;SDS011;5576;50.008;10.596;2022-09-09T00:37:56;1.70;;;0.75;;
11046;SDS011;5576;50.008;10.596;2022-09-09T00:40:30;1.05;;;0.70;;
11046;SDS011;5576;50.008;10.596;2022-09-09T00:43:07;1.40;;;0.80;;
11046;SDS011;5576;50.008;10.596;2022-09-09T00:45:59;1.90;;;0.90;;
11046;SDS011;5576;50.008;10.596;2022-09-09T00:48:35;1.63;;;0.70;;
11046;SDS011;5576;50.008;10.596;2022-09-09T00:51:12;0.55;;;0.55;;
11046;SDS011;5576;50.008;10.596;2022-09-09T00:56:35;1.02;;;0.63;;
11046;SDS011;5576;50.008;10.596;2022-09-09T00:59:12;1.60;;;0.85;;
11046;SDS011;5576;50.008;10.596;2022-09-09T01:01:49;1.15;;;0.70;;
11046;SDS011;5576;50.008;10.596;2022-09-09T01:04:19;2.20;;;0.90;;
11046;SDS011;5576;50.008;10.596;2022-09-09T01:06:56;2.33;;;0.80;;
11046;SDS011;5576;50.008;10.596;2022-09-09T01:28:37;2.27;;;0.80;;
11046;SDS011;5576;50.008;10.596;2022-09-09T01:31:09;1.83;;;0.77;;
11046;SDS011;5576;50.008;10.596;2022-09-09T01:33:43;0.88;;;0.75;;
11046;SDS011;5576;50.008;10.596;2022-09-09T01:36:11;1.98;;;1.02;;
11046;SDS011;5576;50.008;10.596;2022-09-09T01:38:48;1.67;;;0.90;;
11046;SDS011;5576;50.008;10.596;2022-09-09T01:41:15;1.73;;;1.00;;
11046;SDS011;5576;50.008;10.596;2022-09-09T01:43:56;1.70;;;0.90;;
11046;SDS011;5576;50.008;10.596;2022-09-09T01:46:23;2.30;;;0.93;;
11046;SDS011;5576;50.008;10.596;2022-09-09T01:48:50;1.45;;;1.00;;
11046;SDS011;5576;50.008;10.596;2022-09-09T01:51:17;2.10;;;1.00;;
11046;SDS011;5576;50.008;10.596;2022-09-09T01:53:44;2.05;;;0.80;;
11046;SDS011;5576;50.008;10.596;2022-09-09T01:56:17;1.33;;;0.88;;
11046;SDS011;5576;50.008;10.596;2022-09-09T02:02:02;2.08;;;1.00;;
11046;SDS011;5576;50.008;10.596;2022-09-09T02:04:50;1.70;;;0.95;;
11046;SDS011;5576;50.008;10.596;2022-09-09T02:07:39;1.75;;;1.00;;
11046;SDS011;5576;50.008;10.596;2022-09-09T02:10:19;1.83;;;1.00;;
11046;SDS011;5576;50.008;10.596;2022-09-09T02:13:04;1.27;;;0.90;;
11046;SDS011;5576;50.008;10.596;2022-09-09T02:15:39;1.90;;;1.10;;
11046;SDS011;5576;50.008;10.596;2022-09-09T02:18:12;2.93;;;1.00;;
11046;SDS011;5576;50.008;10.596;2022-09-09T02:20:41;2.55;;;1.23;;
11046;SDS011;5576;50.008;10.596;2022-09-09T02:23:10;2.22;;;1.10;;
11046;SDS011;5576;50.008;10.596;2022-09-09T02:25:38;1.77;;;1.05;;
11046;SDS011;5576;50.008;10.596;2022-09-09T02:28:17;2.25;;;1.20;;
11046;SDS011;5576;50.008;10.596;2022-09-09T02:30:46;1.42;;;1.00;;
11046;SDS011;5576;50.008;10.596;2022-09-09T02:33:23;2.03;;;1.13;;
11046;SDS011;5576;50.008;10.596;2022-09-09T02:35:51;3.17;;;1.20;;
11046;SDS011;5576;50.008;10.596;2022-09-09T02:38:23;1.35;;;0.90;;
11046;SDS011;5576;50.008;10.596;2022-09-09T02:41:00;2.13;;;1.08;;
11046;SDS011;5576;50.008;10.596;2022-09-09T02:43:35;2.63;;;1.40;;
11046;SDS011;5576;50.008;10.596;2022-09-09T02:49:04;2.10;;;1.20;;
11046;SDS011;5576;50.008;10.596;2022-09-09T02:51:50;2.25;;;1.00;;
11046;SDS011;5576;50.008;10.596;2022-09-09T02:54:23;2.07;;;1.13;;
11046;SDS011;5576;50.008;10.596;2022-09-09T02:57:01;2.67;;;1.30;;
11046;SDS011;5576;50.008;10.596;2022-09-09T02:59:36;1.50;;;1.20;;
11046;SDS011;5576;50.008;10.596;2022-09-09T03:02:03;3.75;;;1.20;;
11046;SDS011;5576;50.008;10.596;2022-09-09T03:04:31;2.22;;;1.20;;
11046;SDS011;5576;50.008;10.596;2022-09-09T03:06:57;1.50;;;1.20;;
11046;SDS011;5576;50.008;10.596;2022-09-09T03:09:23;2.30;;;1.13;;
11046;SDS011;5576;50.008;10.596;2022-09-09T03:11:52;1.67;;;1.23;;
11046;SDS011;5576;50.008;10.596;2022-09-09T03:14:19;2.22;;;1.10;;
11046;SDS011;5576;50.008;10.596;2022-09-09T03:16:47;1.33;;;1.10;;
11046;SDS011;5576;50.008;10.596;2022-09-09T03:19:13;2.13;;;1.05;;
11046;SDS011;5576;50.008;10.596;2022-09-09T03:21:40;1.85;;;1.15;;
11046;SDS011;5576;50.008;10.596;2022-09-09T03:24:06;1.85;;;1.00;;
11046;SDS011;5576;50.008;10.596;2022-09-09T03:26:32;1.70;;;1.20;;
11046;SDS011;5576;50.008;10.596;2022-09-09T03:28:58;2.17;;;1.10;;
11046;SDS011;5576;50.008;10.596;2022-09-09T03:31:26;1.75;;;1.10;;
11046;SDS011;5576;50.008;10.596;2022-09-09T03:33:56;2.33;;;1.00;;
11046;SDS011;5576;50.008;10.596;2022-09-09T03:36:25;2.00;;;1.15;;
11046;SDS011;5576;50.008;10.596;2022-09-09T03:38:52;1.50;;;1.00;;
11046;SDS011;5576;50.008;10.596;2022-09-09T03:41:21;1.80;;;1.05;;
11046;SDS011;5576;50.008;10.596;2022-09-09T03:43:50;1.83;;;1.10;;
11046;SDS011;5576;50.008;10.596;2022-09-09T03:46:17;2.08;;;1.20;;
11046;SDS011;5576;50.008;10.596;2022-09-09T03:48:43;2.53;;;1.15;;
11046;SDS011;5576;50.008;10.596;2022-09-09T03:51:09;2.25;;;1.10;;
11046;SDS011;5576;50.008;10.596;2022-09-09T03:53:36;2.45;;;1.30;;
11046;SDS011;5576;50.008;10.596;2022-09-09T03:56:04;1.77;;;1.13;;
11046;SDS011;5576;50.008;10.596;2022-09-09T03:58:32;1.67;;;1.27;;
11046;SDS011;5576;50.008;10.596;2022-09-09T04:01:06;2.28;;;1.30;;
11046;SDS011;5576;50.008;10.596;2022-09-09T04:03:35;2.23;;;1.20;;
11046;SDS011;5576;50.008;10.596;2022-09-09T04:06:02;2.55;;;1.20;;
11046;SDS011;5576;50.008;10.596;2022-09-09T04:08:30;2.55;;;1.00;;
11046;SDS011;5576;50.008;10.596;2022-09-09T04:10:57;1.67;;;1.20;;
11046;SDS011;5576;50.008;10.596;2022-09-09T04:13:25;2.17;;;1.20;;
11046;SDS011;5576;50.008;10.596;2022-09-09T04:15:52;2.28;;;1.27;;
11046;SDS011;5576;50.008;10.596;2022-09-09T04:18:19;1.73;;;1.10;;
11046;SDS011;5576;50.008;10.596;2022-09-09T04:20:47;1.63;;;1.20;;
11046;SDS011;5576;50.008;10.596;2022-09-09T04:23:18;1.83;;;1.10;;
11046;SDS011;5576;50.008;10.596;2022-09-09T04:25:46;1.53;;;1.00;;
11046;SDS011;5576;50.008;10.596;2022-09-09T04:28:14;2.38;;;1.20;;
11046;SDS011;5576;50.008;10.596;2022-09-09T04:30:42;2.35;;;1.10;;
11046;SDS011;5576;50.008;10.596;2022-09-09T04:33:08;1.83;;;0.90;;
11046;SDS011;5576;50.008;10.596;2022-09-09T04:35:35;2.33;;;1.10;;
11046;SDS011;5576;50.008;10.596;2022-09-09T04:38:02;1.50;;;1.05;;
11046;SDS011;5576;50.008;10.596;2022-09-09T04:40:30;2.38;;;1.20;;
11046;SDS011;5576;50.008;10.596;2022-09-09T04:42:58;1.60;;;1.17;;
11046;SDS011;5576;50.008;10.596;2022-09-09T04:45:24;1.60;;;1.00;;
11046;SDS011;5576;50.008;10.596;2022-09-09T04:47:52;2.30;;;1.20;;
11046;SDS011;5576;50.008;10.596;2022-09-09T04:50:19;2.25;;;1.20;;
11046;SDS011;5576;50.008;10.596;2022-09-09T04:52:46;1.67;;;1.20;;
11046;SDS011;5576;50.008;10.596;2022-09-09T04:55:12;3.27;;;1.20;;
11046;SDS011;5576;50.008;10.596;2022-09-09T04:57:41;2.40;;;1.40;;
11046;SDS011;5576;50.008;10.596;2022-09-09T05:00:09;1.80;;;1.10;;
11046;SDS011;5576;50.008;10.596;2022-09-09T05:02:38;1.88;;;1.10;;
11046;SDS011;5576;50.008;10.596;2022-09-09T05:05:04;2.20;;;1.33;;
11046;SDS011;5576;50.008;10.596;2022-09-09T05:07:32;1.53;;;1.20;;
11046;SDS011;5576;50.008;10.596;2022-09-09T05:09:57;2.53;;;1.30;;
11046;SDS011;5576;50.008;10.596;2022-09-09T05:12:24;2.50;;;1.40;;
11046;SDS011;5576;50.008;10.596;2022-09-09T05:14:51;2.45;;;1.40;;
11046;SDS011;5576;50.008;10.596;2022-09-09T05:17:17;2.38;;;1.33;;
11046;SDS011;5576;50.008;10.596;2022-09-09T05:19:43;2.15;;;1.42;;
11046;SDS011;5576;50.008;10.596;2022-09-09T05:22:10;1.92;;;1.30;;
11046;SDS011;5576;50.008;10.596;2022-09-09T05:24:42;2.47;;;1.50;;
11046;SDS011;5576;50.008;10.596;2022-09-09T05:27:09;2.55;;;1.50;;
11046;SDS011;5576;50.008;10.596;2022-09-09T05:29:38;2.45;;;1.30;;
11046;SDS011;5576;50.008;10.596;2022-09-09T05:32:07;2.93;;;1.50;;
11046;SDS011;5576;50.008;10.596;2022-09-09T05:34:34;2.17;;;1.30;;
11046;SDS011;5576;50.008;10.596;2022-09-09T05:37:00;3.72;;;1.50;;
11046;SDS011;5576;50.008;10.596;2022-09-09T05:39:26;3.00;;;1.40;;
11046;SDS011;5576;50.008;10.596;2022-09-09T05:41:52;2.80;;;1.42;;
11046;SDS011;5576;50.008;10.596;2022-09-09T05:44:17;2.10;;;1.30;;
11046;SDS011;5576;50.008;10.596;2022-09-09T05:46:44;1.95;;;1.40;;
11046;SDS011;5576;50.008;10.596;2022-09-09T05:49:12;2.20;;;1.20;;
11046;SDS011;5576;50.008;10.596;2022-09-09T05:51:39;2.22;;;1.30;;
11046;SDS011;5576;50.008;10.596;2022-09-09T05:54:09;2.40;;;1.20;;
11046;SDS011;5576;50.008;10.596;2022-09-09T05:56:39;2.08;;;1.17;;
11046;SDS011;5576;50.008;10.596;2022-09-09T05:59:06;2.28;;;1.40;;
11046;SDS011;5576;50.008;10.596;2022-09-09T06:01:34;2.33;;;1.15;;
11046;SDS011;5576;50.008;10.596;2022-09-09T06:04:01;3.45;;;1.20;;
11046;SDS011;5576;50.008;10.596;2022-09-09T06:06:32;1.83;;;1.13;;
11046;SDS011;5576;50.008;10.596;2022-09-09T06:09:03;1.93;;;1.20;;
11046;SDS011;5576;50.008;10.596;2022-09-09T06:11:34;2.70;;;1.17;;
11046;SDS011;5576;50.008;10.596;2022-09-09T06:14:02;4.30;;;1.20;;
11046;SDS011;5576;50.008;10.596;2022-09-09T06:16:29;3.08;;;1.20;;
11046;SDS011;5576;50.008;10.596;2022-09-09T06:18:58;2.92;;;1.25;;
11046;SDS011;5576;50.008;10.596;2022-09-09T06:21:27;2.13;;;1.15;;
11046;SDS011;5576;50.008;10.596;2022-09-09T06:23:55;2.08;;;1.10;;
11046;SDS011;5576;50.008;10.596;2022-09-09T06:26:22;1.77;;;1.30;;
11046;SDS011;5576;50.008;10.596;2022-09-09T06:28:51;1.58;;;1.23;;
11046;SDS011;5576;50.008;10.596;2022-09-09T06:31:21;1.70;;;1.10;;
11046;SDS011;5576;50.008;10.596;2022-09-09T06:33:49;3.53;;;1.20;;
11046;SDS011;5576;50.008;10.596;2022-09-09T06:36:18;2.17;;;1.10;;
11046;SDS011;5576;50.008;10.596;2022-09-09T06:38:45;2.08;;;0.93;;
11046;SDS011;5576;50.008;10.596;2022-09-09T06:41:13;3.55;;;1.08;;
11046;SDS011;5576;50.008;10.596;2022-09-09T06:43:43;2.85;;;1.20;;
11046;SDS011;5576;50.008;10.596;2022-09-09T06:46:12;3.38;;;1.27;;
11046;SDS011;5576;50.008;10.596;2022-09-09T06:48:40;2.43;;;1.20;;
11046;SDS011;5576;50.008;10.596;2022-09-09T06:51:10;2.30;;;1.27;;
11046;SDS011;5576;50.008;10.596;2022-09-09T06:53:40;2.30;;;1.30;;
11046;SDS011;5576;50.008;10.596;2022-09-09T06:58:39;2.40;;;1.20;;
11046;SDS011;5576;50.008;10.596;2022-09-09T07:01:11;2.17;;;1.20;;
11046;SDS011;5576;50.008;10.596;2022-09-09T07:03:38;2.70;;;1.20;;
11046;SDS011;5576;50.008;10.596;2022-09-09T07:06:05;3.58;;;1.30;;
11046;SDS011;5576;50.008;10.596;2022-09-09T07:08:33;3.17;;;1.20;;
11046;SDS011;5576;50.008;10.596;2022-09-09T07:11:02;1.52;;;0.85;;
11046;SDS011;5576;50.008;10.596;2022-09-09T07:13:31;1.97;;;0.87;;
11046;SDS011;5576;50.008;10.596;2022-09-09T07:16:05;2.43;;;0.90;;
11046;SDS011;5576;50.008;10.596;2022-09-09T07:18:32;1.70;;;0.90;;
11046;SDS011;5576;50.008;10.596;2022-09-09T07:21:00;1.60;;;0.88;;
11046;SDS011;5576;50.008;10.596;2022-09-09T07:23:28;1.50;;;0.80;;
11046;SDS011;5576;50.008;10.596;2022-09-09T07:25:55;2.90;;;1.00;;
11046;SDS011;5576;50.008;10.596;2022-09-09T07:28:23;1.90;;;0.80;;
11046;SDS011;5576;50.008;10.596;2022-09-09T07:30:53;1.67;;;0.88;;
11046;SDS011;5576;50.008;10.596;2022-09-09T07:33:20;2.30;;;0.93;;
11046;SDS011;5576;50.008;10.596;2022-09-09T07:35:47;1.35;;;0.70;;
11046;SDS011;5576;50.008;10.596;2022-09-09T07:38:12;1.13;;;0.60;;
11046;SDS011;5576;50.008;10.596;2022-09-09T07:40:40;1.77;;;0.80;;
11046;SDS011;5576;50.008;10.596;2022-09-09T07:43:06;1.45;;;0.90;;
11046;SDS011;5576;50.008;10.596;2022-09-09T07:45:33;2.60;;;0.80;;
11046;SDS011;5576;50.008;10.596;2022-09-09T07:47:59;1.17;;;0.60;;
11046;SDS011;5576;50.008;10.596;2022-09-09T07:50:25;1.38;;;0.70;;
11046;SDS011;5576;50.008;10.596;2022-09-09T07:52:52;0.95;;;0.60;;
11046;SDS011;5576;50.008;10.596;2022-09-09T07:55:19;1.05;;;0.60;;
11046;SDS011;5576;50.008;10.596;2022-09-09T07:57:46;1.15;;;0.60;;
11046;SDS011;5576;50.008;10.596;2022-09-09T08:00:13;1.67;;;0.80;;
11046;SDS011;5576;50.008;10.596;2022-09-09T08:02:43;1.70;;;0.70;;
11046;SDS011;5576;50.008;10.596;2022-09-09T08:05:10;1.65;;;0.70;;
11046;SDS011;5576;50.008;10.596;2022-09-09T08:07:38;1.47;;;0.60;;
11046;SDS011;5576;50.008;10.596;2022-09-09T08:10:04;1.00;;;0.50;;
11046;SDS011;5576;50.008;10.596;2022-09-09T08:12:34;0.98;;;0.60;;
11046;SDS011;5576;50.008;10.596;2022-09-09T08:14:59;1.13;;;0.60;;
11046;SDS011;5576;50.008;10.596;2022-09-09T08:17:29;1.83;;;0.70;;
11046;SDS011;5576;50.008;10.596;2022-09-09T08:19:57;1.30;;;0.57;;
11046;SDS011;5576;50.008;10.596;2022-09-09T08:22:27;1.40;;;0.60;;
11046;SDS011;5576;50.008;10.596;2022-09-09T08:24:54;1.50;;;0.70;;
11046;SDS011;5576;50.008;10.596;2022-09-09T08:27:19;1.80;;;0.80;;
11046;SDS011;5576;50.008;10.596;2022-09-09T08:29:45;1.92;;;1.10;;
11046;SDS011;5576;50.008;10.596;2022-09-09T08:32:11;1.43;;;1.10;;
11046;SDS011;5576;50.008;10.596;2022-09-09T08:34:38;2.13;;;0.93;;
11046;SDS011;5576;50.008;10.596;2022-09-09T08:37:08;2.83;;;1.00;;
11046;SDS011;5576;50.008;10.596;2022-09-09T08:39:38;1.65;;;0.80;;
11046;SDS011;5576;50.008;10.596;2022-09-09T08:45:03;1.53;;;0.80;;
11046;SDS011;5576;50.008;10.596;2022-09-09T08:50:40;2.15;;;0.80;;
11046;SDS011;5576;50.008;10.596;2022-09-09T08:53:16;2.50;;;0.80;;
11046;SDS011;5576;50.008;10.596;2022-09-09T08:55:48;3.40;;;1.40;;
11046;SDS011;5576;50.008;10.596;2022-09-09T08:58:34;1.77;;;1.10;;
11046;SDS011;5576;50.008;10.596;2022-09-09T09:09:15;1.67;;;1.00;;
11046;SDS011;5576;50.008;10.596;2022-09-09T09:11:48;2.60;;;1.00;;
11046;SDS011;5576;50.008;10.596;2022-09-09T09:14:19;1.50;;;0.73;;
11046;SDS011;5576;50.008;10.596;2022-09-09T09:16:53;1.40;;;0.60;;
11046;SDS011;5576;50.008;10.596;2022-09-09T09:19:21;1.55;;;0.80;;
11046;SDS011;5576;50.008;10.596;2022-09-09T09:21:51;1.92;;;0.90;;
11046;SDS011;5576;50.008;10.596;2022-09-09T09:24:21;1.80;;;0.90;;
11046;SDS011;5576;50.008;10.596;2022-09-09T09:26:52;1.77;;;0.80;;
11046;SDS011;5576;50.008;10.596;2022-09-09T09:29:20;1.92;;;0.90;;
11046;SDS011;5576;50.008;10.596;2022-09-09T09:31:48;2.40;;;0.80;;
11046;SDS011;5576;50.008;10.596;2022-09-09T09:34:21;2.43;;;0.90;;
11046;SDS011;5576;50.008;10.596;2022-09-09T09:36:58;2.22;;;0.80;;
11046;SDS011;5576;50.008;10.596;2022-09-09T09:39:30;1.98;;;0.90;;
11046;SDS011;5576;50.008;10.596;2022-09-09T09:42:11;2.42;;;0.90;;
11046;SDS011;5576;50.008;10.596;2022-09-09T09:44:41;2.13;;;0.83;;
11046;SDS011;5576;50.008;10.596;2022-09-09T09:47:14;1.73;;;0.77;;
11046;SDS011;5576;50.008;10.596;2022-09-09T09:49:53;2.65;;;0.90;;
11046;SDS011;5576;50.008;10.596;2022-09-09T09:52:23;2.50;;;0.95;;
11046;SDS011;5576;50.008;10.596;2022-09-09T09:54:50;2.40;;;1.00;;
11046;SDS011;5576;50.008;10.596;2022-09-09T09:57:22;2.70;;;1.00;;
11046;SDS011;5576;50.008;10.596;2022-09-09T10:02:41;2.92;;;1.00;;
11046;SDS011;5576;50.008;10.596;2022-09-09T10:07:44;1.98;;;1.00;;
11046;SDS011;5576;50.008;10.596;2022-09-09T10:10:20;1.75;;;0.88;;
11046;SDS011;5576;50.008;10.596;2022-09-09T10:12:59;2.08;;;0.80;;
11046;SDS011;5576;50.008;10.596;2022-09-09T10:15:38;1.85;;;0.90;;
11046;SDS011;5576;50.008;10.596;2022-09-09T10:24:14;1.48;;;0.80;;
11046;SDS011;5576;50.008;10.596;2022-09-09T10:32:30;1.55;;;0.70;;
11046;SDS011;5576;50.008;10.596;2022-09-09T10:40:39;3.45;;;1.10;;
11046;SDS011;5576;50.008;10.596;2022-09-09T10:45:46;2.22;;;0.80;;
11046;SDS011;5576;50.008;10.596;2022-09-09T10:48:36;2.55;;;0.93;;
11046;SDS011;5576;50.008;10.596;2022-09-09T10:51:16;3.20;;;0.80;;
11046;SDS011;5576;50.008;10.596;2022-09-09T10:56:38;2.28;;;0.80;;
11046;SDS011;5576;50.008;10.596;2022-09-09T11:04:30;3.40;;;1.00;;
11046;SDS011;5576;50.008;10.596;2022-09-09T11:07:00;1.90;;;0.90;;
11046;SDS011;5576;50.008;10.596;2022-09-09T11:09:36;2.90;;;1.00;;
11046;SDS011;5576;50.008;10.596;2022-09-09T11:12:06;1.88;;;0.80;;
11046;SDS011;5576;50.008;10.596;2022-09-09T11:17:33;2.10;;;0.90;;
11046;SDS011;5576;50.008;10.596;2022-09-09T11:20:11;3.28;;;0.90;;
11046;SDS011;5576;50.008;10.596;2022-09-09T11:22:47;1.55;;;0.73;;
11046;SDS011;5576;50.008;10.596;2022-09-09T11:35:31;4.03;;;0.97;;
11046;SDS011;5576;50.008;10.596;2022-09-09T11:41:04;2.75;;;0.90;;
11046;SDS011;5576;50.008;10.596;2022-09-09T11:43:33;2.90;;;0.80;;
11046;SDS011;5576;50.008;10.596;2022-09-09T11:46:05;2.17;;;0.90;;
11046;SDS011;5576;50.008;10.596;2022-09-09T11:48:33;3.42;;;1.10;;
11046;SDS011;5576;50.008;10.596;2022-09-09T11:53:30;3.85;;;1.00;;
11046;SDS011;5576;50.008;10.596;2022-09-09T11:56:00;2.15;;;0.80;;
11046;SDS011;5576;50.008;10.596;2022-09-09T11:58:37;2.42;;;0.77;;
11046;SDS011;5576;50.008;10.596;2022-09-09T12:01:14;2.13;;;0.90;;
11046;SDS011;5576;50.008;10.596;2022-09-09T12:03:43;2.33;;;0.80;;
11046;SDS011;5576;50.008;10.596;2022-09-09T12:06:15;3.55;;;1.08;;
11046;SDS011;5576;50.008;10.596;2022-09-09T12:08:45;1.95;;;0.70;;
11046;SDS011;5576;50.008;10.596;2022-09-09T12:11:23;0.80;;;0.50;;
11046;SDS011;5576;50.008;10.596;2022-09-09T12:13:53;1.63;;;0.52;;
11046;SDS011;5576;50.008;10.596;2022-09-09T12:16:36;1.58;;;0.40;;
11046;SDS011;5576;50.008;10.596;2022-09-09T12:19:04;1.38;;;0.75;;
11046;SDS011;5576;50.008;10.596;2022-09-09T12:24:08;1.38;;;0.50;;
11046;SDS011;5576;50.008;10.596;2022-09-09T12:29:30;1.65;;;0.60;;
11046;SDS011;5576;50.008;10.596;2022-09-09T12:32:11;2.17;;;0.55;;
11046;SDS011;5576;50.008;10.596;2022-09-09T12:34:44;0.90;;;0.50;;
11046;SDS011;5576;50.008;10.596;2022-09-09T12:40:03;1.17;;;0.50;;
11046;SDS011;5576;50.008;10.596;2022-09-09T12:42:30;2.05;;;0.60;;
11046;SDS011;5576;50.008;10.596;2022-09-09T12:45:01;0.95;;;0.45;;
11046;SDS011;5576;50.008;10.596;2022-09-09T12:47:35;1.83;;;0.43;;
11046;SDS011;5576;50.008;10.596;2022-09-09T12:50:23;1.45;;;0.50;;
11046;SDS011;5576;50.008;10.596;2022-09-09T12:52:54;1.10;;;0.55;;
11046;SDS011;5576;50.008;10.596;2022-09-09T12:55:24;0.95;;;0.50;;
11046;SDS011;5576;50.008;10.596;2022-09-09T12:57:55;0.52;;;0.40;;
11046;SDS011;5576;50.008;10.596;2022-09-09T13:00:23;0.40;;;0.30;;
11046;SDS011;5576;50.008;10.596;2022-09-09T13:05:19;0.85;;;0.50;;
11046;SDS011;5576;50.008;10.596;2022-09-09T13:07:49;0.93;;;0.50;;
11046;SDS011;5576;50.008;10.596;2022-09-09T13:10:17;1.17;;;0.55;;
11046;SDS011;5576;50.008;10.596;2022-09-09T13:12:48;1.35;;;0.45;;
11046;SDS011;5576;50.008;10.596;2022-09-09T13:15:22;0.87;;;0.50;;
11046;SDS011;5576;50.008;10.596;2022-09-09T13:17:52;1.47;;;0.60;;
11046;SDS011;5576;50.008;10.596;2022-09-09T13:20:20;1.80;;;0.50;;
11046;SDS011;5576;50.008;10.596;2022-09-09T13:22:47;1.05;;;0.60;;
11046;SDS011;5576;50.008;10.596;2022-09-09T13:28:02;1.30;;;0.60;;
11046;SDS011;5576;50.008;10.596;2022-09-09T13:30:30;1.40;;;0.60;;
11046;SDS011;5576;50.008;10.596;2022-09-09T13:33:00;1.40;;;0.65;;
11046;SDS011;5576;50.008;10.596;2022-09-09T13:35:27;1.38;;;0.63;;
11046;SDS011;5576;50.008;10.596;2022-09-09T13:37:53;1.35;;;0.50;;
11046;SDS011;5576;50.008;10.596;2022-09-09T13:40:20;1.10;;;0.68;;
11046;SDS011;5576;50.008;10.596;2022-09-09T13:42:47;0.97;;;0.50;;
11046;SDS011;5576;50.008;10.596;2022-09-09T13:45:18;1.00;;;0.60;;
11046;SDS011;5576;50.008;10.596;2022-09-09T13:47:46;1.10;;;0.50;;
11046;SDS011;5576;50.008;10.596;2022-09-09T13:52:46;2.05;;;0.60;;
11046;SDS011;5576;50.008;10.596;2022-09-09T13:55:14;1.25;;;0.52;;
11046;SDS011;5576;50.008;10.596;2022-09-09T13:57:49;1.88;;;0.60;;
11046;SDS011;5576;50.008;10.596;2022-09-09T14:00:17;1.40;;;0.60;;
11046;SDS011;5576;50.008;10.596;2022-09-09T14:02:43;0.98;;;0.60;;
11046;SDS011;5576;50.008;10.596;2022-09-09T14:05:09;1.77;;;0.65;;
11046;SDS011;5576;50.008;10.596;2022-09-09T14:07:36;1.73;;;0.60;;
11046;SDS011;5576;50.008;10.596;2022-09-09T14:10:05;1.20;;;0.63;;
11046;SDS011;5576;50.008;10.596;2022-09-09T14:12:31;2.20;;;0.70;;
11046;SDS011;5576;50.008;10.596;2022-09-09T14:14:57;1.47;;;0.67;;
11046;SDS011;5576;50.008;10.596;2022-09-09T14:17:24;2.00;;;1.00;;
11046;SDS011;5576;50.008;10.596;2022-09-09T14:19:54;1.75;;;0.88;;
11046;SDS011;5576;50.008;10.596;2022-09-09T14:22:21;1.75;;;0.80;;
11046;SDS011;5576;50.008;10.596;2022-09-09T14:24:47;1.20;;;0.60;;
11046;SDS011;5576;50.008;10.596;2022-09-09T14:27:13;2.28;;;0.70;;
11046;SDS011;5576;50.008;10.596;2022-09-09T14:29:39;1.42;;;0.70;;
11046;SDS011;5576;50.008;10.596;2022-09-09T14:32:04;1.33;;;0.80;;
11046;SDS011;5576;50.008;10.596;2022-09-09T14:34:30;1.47;;;0.73;;
11046;SDS011;5576;50.008;10.596;2022-09-09T14:36:59;1.17;;;0.70;;
11046;SDS011;5576;50.008;10.596;2022-09-09T14:39:26;1.50;;;0.60;;
11046;SDS011;5576;50.008;10.596;2022-09-09T14:41:52;1.60;;;0.60;;
11046;SDS011;5576;50.008;10.596;2022-09-09T14:44:18;1.33;;;0.63;;
11046;SDS011;5576;50.008;10.596;2022-09-09T14:46:44;0.97;;;0.63;;
11046;SDS011;5576;50.008;10.596;2022-09-09T14:49:10;1.48;;;0.60;;
11046;SDS011;5576;50.008;10.596;2022-09-09T14:51:35;2.28;;;0.90;;
11046;SDS011;5576;50.008;10.596;2022-09-09T14:54:02;2.20;;;0.80;;
11046;SDS011;5576;50.008;10.596;2022-09-09T14:56:29;1.90;;;1.05;;
11046;SDS011;5576;50.008;10.596;2022-09-09T14:58:58;4.10;;;1.50;;
11046;SDS011;5576;50.008;10.596;2022-09-09T15:01:26;2.78;;;1.27;;
11046;SDS011;5576;50.008;10.596;2022-09-09T15:03:53;3.83;;;2.17;;
11046;SDS011;5576;50.008;10.596;2022-09-09T15:06:21;7.78;;;4.30;;
11046;SDS011;5576;50.008;10.596;2022-09-09T15:08:49;3.80;;;2.13;;
11046;SDS011;5576;50.008;10.596;2022-09-09T15:11:16;4.85;;;2.60;;
11046;SDS011;5576;50.008;10.596;2022-09-09T15:13:42;4.60;;;2.00;;
11046;SDS011;5576;50.008;10.596;2022-09-09T15:18:37;3.23;;;1.40;;
11046;SDS011;5576;50.008;10.596;2022-09-09T15:21:09;2.20;;;1.10;;
11046;SDS011;5576;50.008;10.596;2022-09-09T15:23:36;2.27;;;1.20;;
11046;SDS011;5576;50.008;10.596;2022-09-09T15:26:02;1.92;;;1.00;;
11046;SDS011;5576;50.008;10.596;2022-09-09T15:28:29;4.17;;;1.90;;
11046;SDS011;5576;50.008;10.596;2022-09-09T15:30:57;2.80;;;1.58;;
11046;SDS011;5576;50.008;10.596;2022-09-09T15:33:29;8.93;;;4.60;;
11046;SDS011;5576;50.008;10.596;2022-09-09T15:35:54;4.07;;;1.90;;
11046;SDS011;5576;50.008;10.596;2022-09-09T15:38:20;2.22;;;0.95;;
11046;SDS011;5576;50.008;10.596;2022-09-09T15:40:52;1.98;;;1.05;;
11046;SDS011;5576;50.008;10.596;2022-09-09T15:43:19;1.63;;;0.80;;
11046;SDS011;5576;50.008;10.596;2022-09-09T15:45:45;1.57;;;0.97;;
11046;SDS011;5576;50.008;10.596;2022-09-09T15:48:14;1.67;;;0.90;;
11046;SDS011;5576;50.008;10.596;2022-09-09T15:50:40;2.10;;;1.00;;
11046;SDS011;5576;50.008;10.596;2022-09-09T15:53:05;2.05;;;0.98;;
11046;SDS011;5576;50.008;10.596;2022-09-09T15:55:31;1.50;;;0.90;;
11046;SDS011;5576;50.008;10.596;2022-09-09T15:57:57;2.97;;;1.10;;
11046;SDS011;5576;50.008;10.596;2022-09-09T16:00:22;2.60;;;0.80;;
11046;SDS011;5576;50.008;10.596;2022-09-09T16:02:50;1.23;;;0.93;;
11046;SDS011;5576;50.008;10.596;2022-09-09T16:05:16;2.03;;;1.10;;
11046;SDS011;5576;50.008;10.596;2022-09-09T16:07:41;2.72;;;1.80;;
11046;SDS011;5576;50.008;10.596;2022-09-09T16:10:08;1.73;;;1.13;;
11046;SDS011;5576;50.008;10.596;2022-09-09T16:12:35;1.63;;;0.90;;
11046;SDS011;5576;50.008;10.596;2022-09-09T16:15:01;2.00;;;0.90;;
11046;SDS011;5576;50.008;10.596;2022-09-09T16:17:27;3.42;;;1.08;;
11046;SDS011;5576;50.008;10.596;2022-09-09T16:19:53;1.83;;;1.10;;
11046;SDS011;5576;50.008;10.596;2022-09-09T16:22:19;2.05;;;1.00;;
11046;SDS011;5576;50.008;10.596;2022-09-09T16:24:46;1.87;;;1.00;;
11046;SDS011;5576;50.008;10.596;2022-09-09T16:27:12;2.38;;;1.10;;
11046;SDS011;5576;50.008;10.596;2022-09-09T16:29:37;1.97;;;1.20;;
11046;SDS011;5576;50.008;10.596;2022-09-09T16:32:03;2.05;;;1.00;;
11046;SDS011;5576;50.008;10.596;2022-09-09T16:34:29;2.27;;;1.00;;
11046;SDS011;5576;50.008;10.596;2022-09-09T16:36:55;2.05;;;1.05;;
11046;SDS011;5576;50.008;10.596;2022-09-09T16:39:21;4.55;;;1.80;;
11046;SDS011;5576;50.008;10.596;2022-09-09T16:41:47;2.53;;;1.25;;
11046;SDS011;5576;50.008;10.596;2022-09-09T16:44:14;3.17;;;1.10;;
11046;SDS011;5576;50.008;10.596;2022-09-09T16:46:42;1.67;;;0.90;;
11046;SDS011;5576;50.008;10.596;2022-09-09T16:49:10;3.10;;;1.00;;
11046;SDS011;5576;50.008;10.596;2022-09-09T16:51:38;3.15;;;1.00;;
11046;SDS011;5576;50.008;10.596;2022-09-09T16:54:07;2.00;;;1.02;;
11046;SDS011;5576;50.008;10.596;2022-09-09T16:56:34;2.30;;;0.90;;
11046;SDS011;5576;50.008;10.596;2022-09-09T16:59:03;3.05;;;1.02;;
11046;SDS011;5576;50.008;10.596;2022-09-09T17:01:32;2.45;;;0.93;;